createdAt,value
2022-08-31T00:00:12.135Z,18.40
2022-08-31T00:02:58.032Z,18.38
2022-08-31T00:05:24.546Z,18.33
2022-08-31T00:07:51.863Z,18.29
2022-08-31T00:10:20.314Z,18.17
2022-08-31T00:12:59.149Z,18.10
2022-08-31T00:15:26.170Z,17.98
2022-08-31T00:17:53.190Z,18.01
2022-08-31T00:20:33.522Z,18.02
2022-08-31T00:23:02.866Z,18.01
2022-08-31T00:25:29.997Z,17.97
2022-08-31T00:27:56.446Z,17.97
2022-08-31T00:30:23.453Z,17.99
2022-08-31T00:32:49.978Z,18.03
2022-08-31T00:35:16.758Z,18.00
2022-08-31T00:37:43.253Z,17.92
2022-08-31T00:40:10.439Z,17.95
2022-08-31T00:42:37.037Z,17.92
2022-08-31T00:45:05.599Z,17.83
2022-08-31T00:47:32.129Z,17.83
2022-08-31T00:50:00.149Z,17.82
2022-08-31T00:52:37.523Z,17.77
2022-08-31T00:55:29.137Z,17.75
2022-08-31T00:57:58.116Z,17.78
2022-08-31T01:00:27.819Z,17.77
2022-08-31T01:02:55.955Z,17.75
2022-08-31T01:05:22.403Z,17.69
2022-08-31T01:07:50.178Z,17.71
2022-08-31T01:10:20.543Z,17.76
2022-08-31T01:12:50.670Z,17.76
2022-08-31T01:15:17.547Z,17.72
2022-08-31T01:17:48.198Z,17.65
2022-08-31T01:20:31.552Z,17.61
2022-08-31T01:23:13.724Z,17.53
2022-08-31T01:25:43.112Z,17.58
2022-08-31T01:28:10.695Z,17.59
2022-08-31T01:30:38.663Z,17.69
2022-08-31T01:33:06.302Z,17.75
2022-08-31T01:35:33.915Z,17.67
2022-08-31T01:38:02.325Z,17.63
2022-08-31T01:40:37.631Z,17.69
2022-08-31T01:43:04.489Z,17.72
2022-08-31T01:45:30.930Z,17.73
2022-08-31T01:48:00.285Z,17.69
2022-08-31T01:50:26.726Z,17.62
2022-08-31T01:52:53.783Z,17.57
2022-08-31T01:55:20.429Z,17.61
2022-08-31T01:57:47.886Z,17.55
2022-08-31T02:00:33.893Z,17.47
2022-08-31T02:03:02.447Z,17.45
2022-08-31T02:05:29.201Z,17.41
2022-08-31T02:07:57.034Z,17.35
2022-08-31T02:10:24.828Z,17.30
2022-08-31T02:12:51.514Z,17.36
2022-08-31T02:15:28.979Z,17.44
2022-08-31T02:17:55.645Z,17.36
2022-08-31T02:20:23.186Z,17.34
2022-08-31T02:22:50.156Z,17.35
2022-08-31T02:25:17.522Z,17.35
2022-08-31T02:27:43.980Z,17.35
2022-08-31T02:30:14.591Z,17.35
2022-08-31T02:32:41.061Z,17.26
2022-08-31T02:35:09.726Z,17.24
2022-08-31T02:37:36.216Z,17.23
2022-08-31T02:40:06.761Z,17.24
2022-08-31T02:42:53.278Z,17.24
2022-08-31T02:45:21.614Z,17.22
2022-08-31T02:47:48.152Z,17.21
2022-08-31T02:50:23.002Z,17.20
2022-08-31T02:52:50.478Z,17.24
2022-08-31T02:55:17.884Z,17.27
2022-08-31T02:57:44.433Z,17.30
2022-08-31T03:00:12.053Z,17.30
2022-08-31T03:02:40.952Z,17.32
2022-08-31T03:05:08.570Z,17.29
2022-08-31T03:07:38.533Z,17.26
2022-08-31T03:10:08.636Z,17.25
2022-08-31T03:12:36.214Z,17.27
2022-08-31T03:15:06.606Z,17.33
2022-08-31T03:17:33.598Z,17.37
2022-08-31T03:20:01.290Z,17.35
2022-08-31T03:22:28.341Z,17.32
2022-08-31T03:24:55.038Z,17.28
2022-08-31T03:27:24.490Z,17.22
2022-08-31T03:29:52.191Z,17.14
2022-08-31T03:32:23.880Z,17.10
2022-08-31T03:34:56.673Z,17.07
2022-08-31T03:37:23.756Z,17.09
2022-08-31T03:39:50.921Z,17.10
2022-08-31T03:42:17.929Z,17.06
2022-08-31T03:44:44.617Z,17.04
2022-08-31T03:47:18.889Z,17.08
2022-08-31T03:49:45.501Z,17.03
2022-08-31T03:52:21.788Z,17.02
2022-08-31T03:54:56.544Z,17.06
2022-08-31T03:57:23.202Z,17.10
2022-08-31T03:59:53.908Z,17.18
2022-08-31T04:02:21.461Z,17.20
2022-08-31T04:05:07.750Z,17.19
2022-08-31T04:08:00.690Z,17.14
2022-08-31T04:10:47.825Z,17.13
2022-08-31T04:13:33.760Z,17.19
2022-08-31T04:16:26.510Z,17.23
2022-08-31T04:19:15.766Z,17.17
2022-08-31T04:21:53.097Z,17.18
2022-08-31T04:24:19.525Z,17.22
2022-08-31T04:26:51.897Z,17.25
2022-08-31T04:29:18.548Z,17.26
2022-08-31T04:31:45.471Z,17.28
2022-08-31T04:34:11.959Z,17.29
2022-08-31T04:36:39.346Z,17.30
2022-08-31T04:39:07.350Z,17.29
2022-08-31T04:41:37.242Z,17.27
2022-08-31T04:44:05.912Z,17.25
2022-08-31T04:46:35.400Z,17.20
2022-08-31T04:49:01.924Z,17.14
2022-08-31T04:51:31.433Z,17.10
2022-08-31T04:53:58.510Z,17.14
2022-08-31T04:56:27.709Z,17.11
2022-08-31T04:58:57.690Z,17.01
2022-08-31T05:01:27.980Z,17.03
2022-08-31T05:04:24.509Z,17.04
2022-08-31T05:06:51.542Z,17.03
2022-08-31T05:09:21.784Z,17.02
2022-08-31T05:11:51.450Z,17.01
2022-08-31T05:14:18.423Z,17.00
2022-08-31T05:16:51.381Z,17.00
2022-08-31T05:19:18.964Z,16.96
2022-08-31T05:21:46.005Z,16.94
2022-08-31T05:24:15.067Z,16.93
2022-08-31T05:26:48.186Z,16.93
2022-08-31T05:29:19.486Z,16.97
2022-08-31T05:31:51.514Z,16.95
2022-08-31T05:34:20.727Z,16.92
2022-08-31T05:36:52.069Z,16.91
2022-08-31T05:39:18.540Z,17.00
2022-08-31T05:41:46.767Z,17.03
2022-08-31T05:44:14.093Z,17.07
2022-08-31T05:46:41.432Z,17.10
2022-08-31T05:49:09.036Z,17.09
2022-08-31T05:51:38.788Z,17.05
2022-08-31T05:54:07.454Z,17.05
2022-08-31T05:56:34.562Z,17.05
2022-08-31T05:59:01.646Z,17.02
2022-08-31T06:01:31.827Z,17.01
2022-08-31T06:04:20.843Z,16.94
2022-08-31T06:06:47.456Z,16.88
2022-08-31T06:09:16.992Z,16.92
2022-08-31T06:11:44.628Z,16.91
2022-08-31T06:14:16.950Z,16.93
2022-08-31T06:16:45.070Z,16.91
2022-08-31T06:19:15.317Z,16.90
2022-08-31T06:21:50.465Z,16.92
2022-08-31T06:24:22.156Z,16.94
2022-08-31T06:26:59.339Z,16.91
2022-08-31T06:29:31.473Z,16.91
2022-08-31T06:32:00.255Z,16.99
2022-08-31T06:34:29.122Z,17.05
2022-08-31T06:37:05.154Z,17.01
2022-08-31T06:39:57.500Z,16.97
2022-08-31T06:42:38.040Z,16.94
2022-08-31T06:45:27.562Z,16.99
2022-08-31T06:48:01.506Z,17.05
2022-08-31T06:50:27.962Z,17.04
2022-08-31T06:52:55.681Z,17.02
2022-08-31T06:55:24.669Z,17.05
2022-08-31T06:58:09.811Z,17.04
2022-08-31T07:01:07.946Z,17.10
2022-08-31T07:03:48.811Z,17.15
2022-08-31T07:06:37.851Z,17.21
2022-08-31T07:09:07.259Z,17.20
2022-08-31T07:11:44.733Z,17.26
2022-08-31T07:14:15.953Z,17.32
2022-08-31T07:16:44.383Z,17.26
2022-08-31T07:19:13.314Z,17.30
2022-08-31T07:21:43.004Z,17.37
2022-08-31T07:24:10.911Z,17.45
2022-08-31T07:26:42.561Z,17.49
2022-08-31T07:29:11.317Z,17.49
2022-08-31T07:31:48.521Z,17.49
2022-08-31T07:34:25.536Z,17.50
2022-08-31T07:37:25.939Z,17.55
2022-08-31T07:40:12.663Z,17.56
2022-08-31T07:42:43.290Z,17.53
2022-08-31T07:45:22.851Z,17.50
2022-08-31T07:47:52.313Z,17.48
2022-08-31T07:50:21.829Z,17.55
2022-08-31T07:53:08.667Z,17.63
2022-08-31T07:55:45.633Z,17.77
2022-08-31T07:58:31.595Z,17.75
2022-08-31T08:01:02.858Z,17.66
2022-08-31T08:03:30.212Z,17.60
2022-08-31T08:06:16.965Z,17.58
2022-08-31T08:09:23.931Z,17.65
2022-08-31T08:12:06.353Z,17.72
2022-08-31T08:14:57.678Z,17.74
2022-08-31T08:17:53.006Z,17.69
2022-08-31T08:20:37.324Z,17.70
2022-08-31T08:23:13.807Z,17.75
2022-08-31T08:26:22.030Z,17.75
2022-08-31T08:29:07.024Z,17.73
2022-08-31T08:31:37.617Z,17.83
2022-08-31T08:34:05.029Z,17.93
2022-08-31T08:36:37.434Z,18.00
2022-08-31T08:39:07.146Z,18.07
2022-08-31T08:41:37.182Z,18.06
2022-08-31T08:44:09.909Z,18.13
2022-08-31T08:46:52.215Z,18.13
2022-08-31T08:49:54.170Z,18.14
2022-08-31T08:52:27.787Z,18.17
2022-08-31T08:55:00.244Z,18.18
2022-08-31T08:57:31.483Z,18.21
2022-08-31T09:00:05.932Z,18.21
2022-08-31T09:03:17.008Z,18.26
2022-08-31T09:06:45.833Z,18.33
2022-08-31T09:09:20.382Z,18.41
2022-08-31T09:12:12.563Z,18.44
2022-08-31T09:15:03.577Z,18.50
2022-08-31T09:17:42.331Z,18.57
2022-08-31T09:20:12.951Z,18.65
2022-08-31T09:22:52.884Z,18.67
2022-08-31T09:25:37.393Z,18.68
2022-08-31T09:28:36.307Z,18.80
2022-08-31T09:31:03.498Z,18.80
2022-08-31T09:33:34.508Z,18.84
2022-08-31T09:36:17.467Z,18.86
2022-08-31T09:38:46.946Z,18.92
2022-08-31T09:41:33.282Z,18.91
2022-08-31T09:44:44.874Z,18.90
2022-08-31T09:47:48.373Z,18.95
2022-08-31T09:50:28.018Z,18.97
2022-08-31T09:53:48.665Z,18.90
2022-08-31T09:56:18.388Z,18.94
2022-08-31T09:59:01.515Z,19.07
2022-08-31T10:01:45.283Z,19.05
2022-08-31T10:04:25.928Z,19.11
2022-08-31T10:07:14.045Z,19.09
2022-08-31T10:09:47.958Z,19.11
2022-08-31T10:12:39.993Z,19.23
2022-08-31T10:15:16.558Z,19.34
2022-08-31T10:17:56.758Z,19.38
2022-08-31T10:20:31.004Z,19.34
2022-08-31T10:23:08.796Z,19.36
2022-08-31T10:25:52.376Z,19.35
2022-08-31T10:28:37.181Z,19.35
2022-08-31T10:31:13.458Z,19.37
2022-08-31T10:34:28.517Z,19.34
2022-08-31T10:37:03.619Z,19.34
2022-08-31T10:39:38.238Z,19.43
2022-08-31T10:42:10.547Z,19.47
2022-08-31T10:44:52.957Z,19.49
2022-08-31T10:47:32.533Z,19.52
2022-08-31T10:50:00.964Z,19.60
2022-08-31T10:52:42.908Z,19.68
2022-08-31T10:55:21.940Z,19.74
2022-08-31T10:58:19.721Z,19.73
2022-08-31T11:00:53.549Z,19.79
2022-08-31T11:03:23.259Z,19.79
2022-08-31T11:06:10.653Z,19.92
2022-08-31T11:09:06.349Z,19.97
2022-08-31T11:11:56.254Z,19.95
2022-08-31T11:15:05.871Z,19.97
2022-08-31T11:18:15.619Z,20.05
2022-08-31T11:20:42.898Z,20.10
2022-08-31T11:23:28.200Z,20.07
2022-08-31T11:26:16.715Z,20.09
2022-08-31T11:28:49.226Z,20.13
2022-08-31T11:31:25.313Z,20.12
2022-08-31T11:34:15.479Z,20.13
2022-08-31T11:36:52.526Z,20.22
2022-08-31T11:39:35.503Z,20.28
2022-08-31T11:42:18.700Z,20.25
2022-08-31T11:44:59.162Z,20.20
2022-08-31T11:47:28.604Z,20.23
2022-08-31T11:50:00.054Z,20.28
2022-08-31T11:52:48.267Z,20.27
2022-08-31T11:55:39.530Z,20.37
2022-08-31T11:58:20.235Z,20.40
2022-08-31T12:01:02.977Z,20.41
2022-08-31T12:03:43.637Z,20.43
2022-08-31T12:06:33.669Z,20.53
2022-08-31T12:09:23.149Z,20.61
2022-08-31T12:12:09.920Z,20.68
2022-08-31T12:14:49.982Z,20.71
2022-08-31T12:17:48.370Z,20.71
2022-08-31T12:20:20.616Z,20.76
2022-08-31T12:23:11.936Z,20.81
2022-08-31T12:26:09.894Z,20.85
2022-08-31T12:28:54.967Z,20.89
2022-08-31T12:31:21.518Z,20.88
2022-08-31T12:34:16.704Z,20.86
2022-08-31T12:36:43.701Z,20.83
2022-08-31T12:39:18.982Z,20.85
2022-08-31T12:41:56.264Z,20.79
2022-08-31T12:44:26.643Z,20.83
2022-08-31T12:47:05.497Z,20.86
2022-08-31T12:49:48.970Z,20.84
2022-08-31T12:52:39.389Z,20.85
2022-08-31T12:55:18.814Z,20.98
2022-08-31T12:57:58.952Z,21.13
2022-08-31T13:00:33.709Z,21.18
2022-08-31T13:03:09.342Z,21.20
2022-08-31T13:05:38.177Z,21.25
2022-08-31T13:08:24.754Z,21.22
2022-08-31T13:10:51.363Z,21.23
2022-08-31T13:13:28.884Z,21.25
2022-08-31T13:16:01.215Z,21.28
2022-08-31T13:18:30.866Z,21.30
2022-08-31T13:21:08.515Z,21.29
2022-08-31T13:23:40.907Z,21.29
2022-08-31T13:26:24.393Z,21.40
2022-08-31T13:28:53.638Z,21.51
2022-08-31T13:31:26.640Z,21.58
2022-08-31T13:33:57.057Z,21.62
2022-08-31T13:36:46.987Z,21.59
2022-08-31T13:39:29.605Z,21.65
2022-08-31T13:42:09.934Z,21.55
2022-08-31T13:44:44.035Z,21.65
2022-08-31T13:47:20.114Z,21.67
2022-08-31T13:49:51.745Z,21.67
2022-08-31T13:52:26.130Z,21.74
2022-08-31T13:55:05.893Z,21.79
2022-08-31T13:57:36.888Z,21.79
2022-08-31T14:00:36.725Z,21.80
2022-08-31T14:03:32.016Z,21.84
2022-08-31T14:06:23.847Z,21.86
2022-08-31T14:09:01.944Z,21.83
2022-08-31T14:11:29.204Z,21.85
2022-08-31T14:14:05.075Z,21.80
2022-08-31T14:16:38.541Z,21.80
2022-08-31T14:19:05.470Z,21.80
2022-08-31T14:21:35.009Z,21.83
2022-08-31T14:24:04.611Z,21.78
2022-08-31T14:26:41.530Z,21.71
2022-08-31T14:29:14.190Z,21.59
2022-08-31T14:31:52.775Z,21.52
2022-08-31T14:34:21.995Z,21.59
2022-08-31T14:36:55.223Z,21.69
2022-08-31T14:39:31.929Z,21.79
2022-08-31T14:42:20.378Z,21.82
2022-08-31T14:44:53.491Z,21.83
2022-08-31T14:47:24.100Z,21.75
2022-08-31T14:49:51.550Z,21.71
2022-08-31T14:52:18.273Z,21.72
2022-08-31T14:54:45.898Z,21.80
2022-08-31T14:57:17.149Z,21.71
2022-08-31T14:59:46.632Z,21.71
2022-08-31T15:02:16.191Z,21.79
2022-08-31T15:04:45.559Z,21.83
2022-08-31T15:07:13.465Z,21.81
2022-08-31T15:09:41.325Z,21.81
2022-08-31T15:12:09.830Z,21.75
2022-08-31T15:14:39.339Z,21.71
2022-08-31T15:17:10.749Z,21.66
2022-08-31T15:19:47.870Z,21.64
2022-08-31T15:22:15.711Z,21.67
2022-08-31T15:24:44.573Z,21.71
2022-08-31T15:27:15.032Z,21.73
2022-08-31T15:29:42.952Z,21.68
2022-08-31T15:32:16.303Z,21.65
2022-08-31T15:34:49.852Z,21.67
2022-08-31T15:37:17.000Z,21.69
2022-08-31T15:39:48.790Z,21.72
2022-08-31T15:42:20.493Z,21.77
2022-08-31T15:44:57.804Z,21.76
2022-08-31T15:47:46.621Z,21.78
2022-08-31T15:50:13.364Z,21.75
2022-08-31T15:52:49.700Z,21.71
2022-08-31T15:55:23.377Z,21.71
2022-08-31T15:57:53.921Z,21.72
2022-08-31T16:00:23.336Z,21.71
2022-08-31T16:02:55.837Z,21.66
2022-08-31T16:05:23.883Z,21.66
2022-08-31T16:07:53.052Z,21.63
2022-08-31T16:12:47.060Z,21.62
2022-08-31T16:15:15.340Z,21.65
2022-08-31T16:17:42.161Z,21.69
2022-08-31T16:20:09.878Z,21.69
2022-08-31T16:22:36.720Z,21.70
2022-08-31T16:25:06.627Z,21.69
2022-08-31T16:27:33.948Z,21.69
2022-08-31T16:30:00.418Z,21.69
2022-08-31T16:32:27.618Z,21.68
2022-08-31T16:34:54.796Z,21.64
2022-08-31T16:37:21.199Z,21.59
2022-08-31T16:39:47.768Z,21.62
2022-08-31T16:42:15.464Z,21.63
2022-08-31T16:44:46.052Z,21.63
2022-08-31T16:47:15.194Z,21.61
2022-08-31T16:49:43.375Z,21.59
2022-08-31T16:52:18.005Z,21.59
2022-08-31T16:54:47.964Z,21.58
2022-08-31T16:57:18.644Z,21.57
2022-08-31T16:59:45.849Z,21.56
2022-08-31T17:02:13.745Z,21.56
2022-08-31T17:04:52.147Z,21.54
2022-08-31T17:07:20.034Z,21.49
2022-08-31T17:09:46.618Z,21.54
2022-08-31T17:12:16.657Z,21.54
2022-08-31T17:14:46.921Z,21.54
2022-08-31T17:17:17.005Z,21.53
2022-08-31T17:19:44.793Z,21.56
2022-08-31T17:22:21.412Z,21.53
2022-08-31T17:24:49.609Z,21.47
2022-08-31T17:27:19.679Z,21.48
2022-08-31T17:29:49.739Z,21.49
2022-08-31T17:32:21.428Z,21.49
2022-08-31T17:34:51.463Z,21.51
2022-08-31T17:37:28.245Z,21.46
2022-08-31T17:39:55.906Z,21.44
2022-08-31T17:42:26.612Z,21.39
2022-08-31T17:44:54.144Z,21.28
2022-08-31T17:47:22.439Z,21.21
2022-08-31T17:49:50.608Z,21.17
2022-08-31T17:52:20.286Z,21.10
2022-08-31T17:54:47.439Z,21.09
2022-08-31T17:57:16.420Z,21.03
2022-08-31T17:59:51.541Z,20.98
2022-08-31T18:02:22.671Z,20.92
2022-08-31T18:04:49.257Z,20.85
2022-08-31T18:07:15.975Z,20.82
2022-08-31T18:09:46.718Z,20.82
2022-08-31T18:12:14.994Z,20.73
2022-08-31T18:14:41.728Z,20.72
2022-08-31T18:17:10.117Z,20.67
2022-08-31T18:19:36.925Z,20.66
2022-08-31T18:22:03.657Z,20.59
2022-08-31T18:24:35.168Z,20.59
2022-08-31T18:27:03.960Z,20.59
2022-08-31T18:29:34.454Z,20.60
2022-08-31T18:32:03.997Z,20.60
2022-08-31T18:34:33.501Z,20.61
2022-08-31T18:37:00.590Z,20.57
2022-08-31T18:39:50.577Z,20.53
2022-08-31T18:42:34.832Z,20.51
2022-08-31T18:45:18.260Z,20.53
2022-08-31T18:48:07.074Z,20.47
2022-08-31T18:50:36.436Z,20.48
2022-08-31T18:53:04.298Z,20.48
2022-08-31T18:55:37.859Z,20.46
2022-08-31T18:58:04.683Z,20.42
2022-08-31T19:00:33.081Z,20.41
2022-08-31T19:03:00.374Z,20.41
2022-08-31T19:05:28.182Z,20.38
2022-08-31T19:07:55.549Z,20.32
2022-08-31T19:10:25.373Z,20.29
2022-08-31T19:12:52.406Z,20.28
2022-08-31T19:15:18.881Z,20.24
2022-08-31T19:17:49.134Z,20.18
2022-08-31T19:20:16.402Z,20.17
2022-08-31T19:22:42.834Z,20.11
2022-08-31T19:25:10.591Z,20.09
2022-08-31T19:27:37.704Z,19.99
2022-08-31T19:30:07.781Z,19.89
2022-08-31T19:32:34.201Z,19.90
2022-08-31T19:35:00.593Z,19.89
2022-08-31T19:37:27.579Z,19.85
2022-08-31T19:39:53.994Z,19.81
2022-08-31T19:42:39.655Z,19.81
2022-08-31T19:45:23.272Z,19.77
2022-08-31T19:47:50.283Z,19.73
2022-08-31T19:50:17.083Z,19.80
2022-08-31T19:52:44.353Z,19.74
2022-08-31T19:55:11.806Z,19.74
2022-08-31T19:57:38.946Z,19.67
2022-08-31T20:00:07.894Z,19.67
2022-08-31T20:02:36.142Z,19.68
2022-08-31T20:05:06.268Z,19.65
2022-08-31T20:07:34.238Z,19.65
2022-08-31T20:10:03.092Z,19.64
2022-08-31T20:12:29.653Z,19.62
2022-08-31T20:14:56.073Z,19.61
2022-08-31T20:17:22.631Z,19.61
2022-08-31T20:19:49.369Z,19.59
2022-08-31T20:22:15.802Z,19.59
2022-08-31T20:24:43.843Z,19.54
2022-08-31T20:27:13.650Z,19.51
2022-08-31T20:29:40.841Z,19.48
2022-08-31T20:32:08.072Z,19.49
2022-08-31T20:34:34.752Z,19.43
2022-08-31T20:37:01.648Z,19.40
2022-08-31T20:39:30.199Z,19.36
2022-08-31T20:41:58.824Z,19.34
2022-08-31T20:44:34.662Z,19.25
2022-08-31T20:47:23.088Z,19.24
2022-08-31T20:50:01.343Z,19.21
2022-08-31T20:52:30.346Z,19.12
2022-08-31T20:55:00.710Z,19.12
2022-08-31T20:57:29.370Z,19.09
2022-08-31T20:59:56.007Z,19.08
2022-08-31T21:02:22.557Z,19.16
2022-08-31T21:04:50.050Z,19.13
2022-08-31T21:07:18.956Z,19.12
2022-08-31T21:09:46.481Z,19.01
2022-08-31T21:12:17.863Z,19.02
2022-08-31T21:14:45.691Z,18.97
2022-08-31T21:17:15.758Z,19.06
2022-08-31T21:19:48.331Z,19.10
2022-08-31T21:22:17.174Z,19.10
2022-08-31T21:24:43.901Z,19.13
2022-08-31T21:27:13.746Z,19.18
2022-08-31T21:29:41.294Z,19.19
2022-08-31T21:32:10.095Z,19.07
2022-08-31T21:34:37.124Z,18.99
2022-08-31T21:37:03.609Z,18.99
2022-08-31T21:39:32.193Z,18.85
2022-08-31T21:41:58.762Z,18.91
2022-08-31T21:44:25.162Z,18.88
2022-08-31T21:46:52.218Z,18.86
2022-08-31T21:49:19.745Z,18.82
2022-08-31T21:51:57.689Z,18.78
2022-08-31T21:54:27.592Z,18.70
2022-08-31T21:56:56.732Z,18.63
2022-08-31T21:59:28.728Z,18.66
2022-08-31T22:02:00.824Z,18.66
2022-08-31T22:04:29.306Z,18.67
2022-08-31T22:06:56.315Z,18.64
2022-08-31T22:09:23.684Z,18.58
2022-08-31T22:11:54.818Z,18.48
2022-08-31T22:14:26.188Z,18.47
2022-08-31T22:16:54.700Z,18.45
2022-08-31T22:19:25.784Z,18.41
2022-08-31T22:22:00.821Z,18.43
2022-08-31T22:24:31.826Z,18.41
2022-08-31T22:27:01.430Z,18.38
2022-08-31T22:29:31.658Z,18.32
2022-08-31T22:32:05.051Z,18.28
2022-08-31T22:34:31.496Z,18.25
2022-08-31T22:36:57.974Z,18.24
2022-08-31T22:39:27.835Z,18.25
2022-08-31T22:41:56.080Z,18.19
2022-08-31T22:44:24.922Z,18.21
2022-08-31T22:46:52.927Z,18.31
2022-08-31T22:49:19.572Z,18.35
2022-08-31T22:51:49.059Z,18.38
2022-08-31T22:54:19.151Z,18.35
2022-08-31T22:56:46.746Z,18.34
2022-08-31T22:59:16.862Z,18.33
2022-08-31T23:01:47.678Z,18.28
2022-08-31T23:04:19.933Z,18.16
2022-08-31T23:06:49.057Z,18.17
2022-08-31T23:09:21.091Z,18.15
2022-08-31T23:11:51.288Z,18.12
2022-08-31T23:14:17.809Z,18.09
2022-08-31T23:16:47.268Z,18.10
2022-08-31T23:19:20.015Z,18.02
2022-08-31T23:21:53.030Z,18.04
2022-08-31T23:24:36.921Z,17.94
2022-08-31T23:27:05.895Z,17.87
2022-08-31T23:29:36.040Z,17.82
2022-08-31T23:32:04.213Z,17.79
2022-08-31T23:34:30.887Z,17.79
2022-08-31T23:36:57.463Z,17.84
2022-08-31T23:39:24.172Z,17.84
2022-08-31T23:41:51.097Z,17.79
2022-08-31T23:44:20.495Z,17.75
2022-08-31T23:46:47.275Z,17.75
2022-08-31T23:49:18.221Z,17.73
2022-08-31T23:51:45.289Z,17.77
2022-08-31T23:54:12.383Z,17.78
2022-08-31T23:56:41.871Z,17.85
2022-08-31T23:59:11.555Z,17.92
